createdAt,value
2019-04-30T00:00:55.408Z,9.60
2019-04-30T00:03:46.220Z,9.60
2019-04-30T00:06:15.808Z,9.50
2019-04-30T00:08:45.234Z,9.50
2019-04-30T00:11:17.939Z,9.50
2019-04-30T00:13:45.954Z,9.50
2019-04-30T00:16:15.514Z,9.50
2019-04-30T00:18:55.505Z,9.50
2019-04-30T00:21:18.688Z,9.50
2019-04-30T00:23:47.175Z,9.50
2019-04-30T00:26:17.284Z,9.50
2019-04-30T00:28:47.855Z,9.50
2019-04-30T00:31:23.488Z,9.50
2019-04-30T00:33:48.147Z,9.50
2019-04-30T00:36:17.809Z,9.50
2019-04-30T00:38:47.121Z,9.50
2019-04-30T00:41:16.593Z,9.40
2019-04-30T00:43:49.370Z,9.40
2019-04-30T00:46:24.722Z,9.30
2019-04-30T00:48:48.100Z,9.20
2019-04-30T00:51:21.101Z,9.10
2019-04-30T00:53:52.580Z,9.00
2019-04-30T00:56:24.796Z,8.90
2019-04-30T00:58:57.745Z,8.80
2019-04-30T01:01:48.126Z,8.70
2019-04-30T01:04:24.684Z,8.70
2019-04-30T01:06:59.967Z,8.60
2019-04-30T01:09:27.090Z,8.50
2019-04-30T01:11:56.412Z,8.40
2019-04-30T01:14:28.183Z,8.40
2019-04-30T01:16:56.842Z,8.30
2019-04-30T01:19:30.142Z,8.20
2019-04-30T01:21:59.368Z,8.20
2019-04-30T01:24:31.666Z,8.10
2019-04-30T01:27:06.736Z,8.10
2019-04-30T01:29:38.233Z,8.00
2019-04-30T01:32:03.924Z,8.00
2019-04-30T01:34:33.269Z,8.00
2019-04-30T01:37:02.665Z,8.10
2019-04-30T01:39:31.957Z,8.10
2019-04-30T01:42:03.004Z,8.10
2019-04-30T01:44:32.281Z,8.10
2019-04-30T01:47:01.651Z,8.20
2019-04-30T01:49:41.766Z,8.20
2019-04-30T01:52:01.968Z,8.20
2019-04-30T01:54:31.293Z,8.20
2019-04-30T01:57:22.097Z,8.20
2019-04-30T02:00:22.351Z,8.20
2019-04-30T02:02:51.711Z,8.20
2019-04-30T02:05:21.080Z,8.20
2019-04-30T02:07:50.345Z,8.20
2019-04-30T02:10:19.507Z,8.20
2019-04-30T02:12:49.335Z,8.20
2019-04-30T02:15:19.213Z,8.20
2019-04-30T02:17:50.398Z,8.20
2019-04-30T02:20:20.168Z,8.20
2019-04-30T02:22:49.486Z,8.20
2019-04-30T02:25:19.524Z,8.20
2019-04-30T02:27:49.136Z,8.20
2019-04-30T02:30:20.894Z,8.20
2019-04-30T02:32:52.484Z,8.10
2019-04-30T02:35:45.477Z,8.00
2019-04-30T02:38:39.483Z,7.90
2019-04-30T02:41:09.982Z,7.90
2019-04-30T02:43:40.863Z,7.80
2019-04-30T02:46:12.292Z,7.70
2019-04-30T02:48:43.163Z,7.60
2019-04-30T02:51:13.996Z,7.60
2019-04-30T02:54:20.325Z,7.60
2019-04-30T02:57:11.695Z,7.60
2019-04-30T03:00:01.727Z,7.60
2019-04-30T03:02:32.219Z,7.70
2019-04-30T03:05:03.844Z,7.70
2019-04-30T03:07:33.051Z,7.70
2019-04-30T03:10:02.438Z,7.80
2019-04-30T03:12:33.659Z,7.80
2019-04-30T03:15:04.637Z,7.80
2019-04-30T03:18:02.152Z,7.90
2019-04-30T03:20:53.294Z,7.90
2019-04-30T03:23:22.651Z,7.90
2019-04-30T03:25:51.919Z,8.00
2019-04-30T03:28:21.245Z,8.00
2019-04-30T03:30:51.951Z,8.00
2019-04-30T03:33:22.939Z,8.00
2019-04-30T03:35:54.206Z,8.00
2019-04-30T03:38:23.530Z,8.00
2019-04-30T03:40:52.901Z,8.00
2019-04-30T03:43:22.263Z,8.00
2019-04-30T03:45:51.612Z,8.00
2019-04-30T03:48:21.004Z,8.00
2019-04-30T03:50:56.623Z,8.10
2019-04-30T03:53:21.357Z,8.10
2019-04-30T03:55:50.859Z,8.00
2019-04-30T03:58:21.480Z,8.00
2019-04-30T04:01:10.264Z,8.00
2019-04-30T04:04:00.401Z,8.00
2019-04-30T04:06:35.211Z,8.00
2019-04-30T04:09:22.006Z,8.00
2019-04-30T04:11:50.807Z,8.00
2019-04-30T04:14:19.934Z,8.00
2019-04-30T04:16:50.838Z,8.00
2019-04-30T04:19:20.437Z,8.00
2019-04-30T04:21:51.048Z,8.00
2019-04-30T04:24:20.689Z,8.00
2019-04-30T04:26:50.419Z,8.00
2019-04-30T04:29:19.908Z,8.00
2019-04-30T04:31:50.162Z,8.00
2019-04-30T04:34:19.967Z,8.00
2019-04-30T04:36:50.519Z,8.00
2019-04-30T04:39:20.555Z,8.00
2019-04-30T04:41:50.542Z,8.00
2019-04-30T04:44:20.611Z,8.00
2019-04-30T04:46:50.532Z,8.00
2019-04-30T04:49:20.820Z,8.00
2019-04-30T04:51:50.467Z,8.00
2019-04-30T04:54:20.424Z,8.00
2019-04-30T04:56:53.186Z,8.00
2019-04-30T04:59:20.898Z,8.10
2019-04-30T05:01:50.415Z,8.10
2019-04-30T05:04:20.117Z,8.10
2019-04-30T05:06:49.971Z,8.10
2019-04-30T05:09:19.538Z,8.20
2019-04-30T05:11:49.053Z,8.20
2019-04-30T05:14:18.963Z,8.20
2019-04-30T05:16:48.907Z,8.20
2019-04-30T05:19:18.634Z,8.20
2019-04-30T05:21:51.485Z,8.20
2019-04-30T05:24:19.311Z,8.20
2019-04-30T05:26:48.830Z,8.30
2019-04-30T05:29:19.047Z,8.30
2019-04-30T05:31:48.697Z,8.30
2019-04-30T05:34:18.929Z,8.30
2019-04-30T05:36:49.011Z,8.30
2019-04-30T05:39:18.923Z,8.30
2019-04-30T05:41:49.171Z,8.30
2019-04-30T05:44:18.656Z,8.30
2019-04-30T05:46:49.420Z,8.30
2019-04-30T05:49:20.389Z,8.30
2019-04-30T05:51:55.439Z,8.40
2019-04-30T05:54:20.810Z,8.40
2019-04-30T05:56:50.003Z,8.40
2019-04-30T05:59:20.685Z,8.40
2019-04-30T06:01:50.782Z,8.40
2019-04-30T06:04:20.311Z,8.50
2019-04-30T06:06:49.587Z,8.60
2019-04-30T06:09:48.508Z,8.60
2019-04-30T06:12:55.447Z,8.60
2019-04-30T06:15:39.061Z,8.60
2019-04-30T06:18:13.422Z,8.70
2019-04-30T06:20:39.595Z,8.70
2019-04-30T06:23:09.531Z,8.70
2019-04-30T06:25:55.772Z,8.70
2019-04-30T06:28:10.265Z,8.70
2019-04-30T06:30:39.822Z,8.60
2019-04-30T06:33:11.651Z,8.70
2019-04-30T06:35:40.285Z,8.70
2019-04-30T06:38:09.649Z,8.80
2019-04-30T06:40:39.192Z,8.80
2019-04-30T06:43:09.264Z,8.90
2019-04-30T06:45:38.929Z,8.90
2019-04-30T06:48:08.925Z,8.90
2019-04-30T06:50:39.297Z,8.90
2019-04-30T06:53:09.393Z,8.80
2019-04-30T06:55:49.091Z,8.90
2019-04-30T06:58:20.562Z,8.90
2019-04-30T07:00:49.663Z,8.90
2019-04-30T07:03:19.344Z,9.00
2019-04-30T07:05:48.941Z,9.00
2019-04-30T07:08:46.773Z,9.10
2019-04-30T07:11:33.550Z,9.30
2019-04-30T07:14:02.935Z,9.50
2019-04-30T07:16:32.370Z,9.80
2019-04-30T07:19:01.758Z,10.00
2019-04-30T07:21:31.704Z,10.10
2019-04-30T07:24:01.313Z,10.20
2019-04-30T07:26:30.691Z,10.20
2019-04-30T07:29:02.620Z,10.20
2019-04-30T07:31:30.954Z,10.30
2019-04-30T07:34:00.305Z,10.30
2019-04-30T07:36:45.212Z,10.30
2019-04-30T07:39:00.627Z,10.50
2019-04-30T07:41:31.299Z,10.80
2019-04-30T07:44:00.731Z,10.80
2019-04-30T07:46:34.752Z,10.90
2019-04-30T07:49:00.997Z,11.00
2019-04-30T07:51:31.976Z,11.00
2019-04-30T07:54:01.182Z,10.90
2019-04-30T07:56:35.026Z,11.10
2019-04-30T07:59:02.894Z,11.20
2019-04-30T08:01:33.708Z,11.80
2019-04-30T08:04:25.195Z,12.40
2019-04-30T08:06:55.175Z,12.80
2019-04-30T08:09:24.558Z,12.80
2019-04-30T08:11:53.951Z,12.80
2019-04-30T08:14:24.672Z,13.20
2019-04-30T08:16:54.254Z,13.70
2019-04-30T08:19:23.482Z,14.20
2019-04-30T08:21:52.817Z,14.90
2019-04-30T08:24:22.038Z,15.30
2019-04-30T08:26:51.407Z,15.40
2019-04-30T08:29:20.751Z,15.70
2019-04-30T08:31:50.034Z,15.90
2019-04-30T08:34:20.085Z,16.20
2019-04-30T08:36:49.620Z,16.30
2019-04-30T08:39:19.727Z,16.50
2019-04-30T08:41:49.351Z,17.00
2019-04-30T08:44:20.824Z,16.70
2019-04-30T08:46:49.769Z,16.30
2019-04-30T08:49:19.874Z,16.20
2019-04-30T08:51:49.895Z,16.10
2019-04-30T08:54:20.237Z,16.30
2019-04-30T08:56:50.368Z,16.50
2019-04-30T08:59:19.719Z,16.50
2019-04-30T09:01:49.105Z,16.70
2019-04-30T09:04:20.149Z,16.90
2019-04-30T09:06:49.686Z,16.80
2019-04-30T09:09:20.912Z,17.00
2019-04-30T09:11:55.336Z,17.00
2019-04-30T09:14:21.263Z,16.80
2019-04-30T09:16:51.347Z,16.90
2019-04-30T09:19:21.293Z,17.20
2019-04-30T09:21:50.748Z,17.50
2019-04-30T09:24:20.061Z,17.80
2019-04-30T09:26:49.437Z,18.00
2019-04-30T09:29:19.153Z,18.10
2019-04-30T09:31:49.285Z,18.00
2019-04-30T09:34:20.952Z,18.30
2019-04-30T09:36:49.981Z,18.80
2019-04-30T09:39:19.931Z,19.00
2019-04-30T09:41:50.421Z,18.70
2019-04-30T09:44:19.828Z,18.60
2019-04-30T09:46:49.258Z,18.90
2019-04-30T09:49:19.480Z,18.90
2019-04-30T09:51:49.825Z,18.70
2019-04-30T09:54:20.263Z,19.10
2019-04-30T09:56:52.612Z,19.50
2019-04-30T09:59:20.908Z,19.60
2019-04-30T10:01:50.222Z,19.00
2019-04-30T10:04:20.652Z,19.40
2019-04-30T10:06:50.355Z,19.40
2019-04-30T10:09:20.579Z,19.70
2019-04-30T10:11:56.334Z,20.10
2019-04-30T10:14:25.651Z,20.30
2019-04-30T10:17:09.628Z,19.50
2019-04-30T10:19:39.383Z,19.50
2019-04-30T10:22:09.016Z,19.70
2019-04-30T10:24:39.311Z,19.80
2019-04-30T10:27:13.065Z,20.00
2019-04-30T10:29:41.242Z,19.90
2019-04-30T10:32:11.015Z,20.10
2019-04-30T10:34:40.321Z,20.50
2019-04-30T10:37:10.143Z,20.70
2019-04-30T10:39:39.471Z,20.70
2019-04-30T10:42:08.905Z,20.90
2019-04-30T10:44:38.274Z,20.90
2019-04-30T10:47:09.335Z,21.30
2019-04-30T10:49:38.980Z,21.40
2019-04-30T10:52:09.351Z,21.20
2019-04-30T10:54:39.083Z,21.10
2019-04-30T10:57:08.785Z,21.10
2019-04-30T10:59:38.189Z,21.50
2019-04-30T11:02:09.057Z,21.70
2019-04-30T11:04:38.612Z,21.50
2019-04-30T11:07:08.622Z,21.80
2019-04-30T11:09:39.316Z,21.40
2019-04-30T11:12:09.492Z,21.60
2019-04-30T11:14:38.875Z,22.00
2019-04-30T11:17:09.921Z,22.10
2019-04-30T11:19:39.297Z,22.20
2019-04-30T11:22:08.788Z,22.30
2019-04-30T11:24:54.087Z,22.40
2019-04-30T11:27:11.204Z,22.30
2019-04-30T11:29:40.509Z,22.20
2019-04-30T11:32:18.447Z,22.20
2019-04-30T11:34:47.945Z,22.40
2019-04-30T11:37:17.625Z,22.50
2019-04-30T11:39:47.098Z,22.80
2019-04-30T11:42:16.434Z,23.40
2019-04-30T11:44:45.801Z,23.30
2019-04-30T11:47:39.693Z,23.40
2019-04-30T11:50:14.428Z,23.80
2019-04-30T11:52:43.811Z,24.00
2019-04-30T11:55:13.493Z,23.80
2019-04-30T11:57:42.968Z,23.10
2019-04-30T12:00:18.705Z,23.40
2019-04-30T12:02:52.677Z,23.50
2019-04-30T12:05:20.839Z,23.80
2019-04-30T12:08:21.235Z,23.60
2019-04-30T12:10:53.959Z,23.40
2019-04-30T12:13:30.433Z,22.80
2019-04-30T12:15:59.904Z,23.30
2019-04-30T12:18:29.254Z,23.50
2019-04-30T12:20:58.619Z,23.60
2019-04-30T12:23:27.858Z,23.80
2019-04-30T12:25:59.418Z,23.80
2019-04-30T12:28:29.601Z,23.90
2019-04-30T12:30:59.138Z,23.90
2019-04-30T12:33:28.492Z,24.20
2019-04-30T12:35:59.600Z,23.20
2019-04-30T12:38:29.864Z,23.30
2019-04-30T12:40:59.390Z,23.70
2019-04-30T12:43:28.677Z,24.10
2019-04-30T12:46:04.853Z,23.70
2019-04-30T12:48:43.704Z,24.00
2019-04-30T12:51:25.781Z,24.20
2019-04-30T12:54:01.903Z,23.80
2019-04-30T12:56:40.329Z,24.20
2019-04-30T12:59:09.791Z,24.40
2019-04-30T13:01:39.893Z,24.30
2019-04-30T13:04:09.892Z,24.50
2019-04-30T13:06:39.816Z,24.60
2019-04-30T13:09:11.611Z,24.60
2019-04-30T13:11:42.262Z,24.60
2019-04-30T13:14:12.801Z,24.30
2019-04-30T13:16:42.422Z,24.30
2019-04-30T13:19:11.891Z,24.60
2019-04-30T13:21:41.264Z,24.70
2019-04-30T13:24:10.708Z,24.90
2019-04-30T13:26:40.057Z,25.10
2019-04-30T13:29:15.259Z,25.20
2019-04-30T13:31:44.910Z,24.90
2019-04-30T13:34:35.495Z,25.00
2019-04-30T13:37:09.187Z,25.00
2019-04-30T13:39:50.650Z,24.40
2019-04-30T13:42:20.576Z,24.60
2019-04-30T13:44:50.049Z,24.80
2019-04-30T13:47:19.352Z,25.10
2019-04-30T13:49:49.503Z,25.20
2019-04-30T13:52:18.974Z,25.00
2019-04-30T13:54:48.346Z,25.00
2019-04-30T13:57:17.692Z,25.10
2019-04-30T13:59:46.903Z,24.90
2019-04-30T14:02:18.512Z,24.70
2019-04-30T14:05:06.468Z,24.80
2019-04-30T14:07:59.727Z,24.80
2019-04-30T14:10:30.565Z,24.80
2019-04-30T14:13:01.359Z,24.70
2019-04-30T14:15:30.670Z,25.00
2019-04-30T14:18:00.119Z,25.50
2019-04-30T14:20:29.411Z,25.70
2019-04-30T14:22:58.824Z,25.90
2019-04-30T14:25:28.423Z,25.90
2019-04-30T14:27:59.285Z,25.90
2019-04-30T14:30:29.295Z,26.20
2019-04-30T14:32:59.337Z,26.50
2019-04-30T14:35:28.769Z,26.40
2019-04-30T14:37:59.618Z,26.20
2019-04-30T14:40:32.708Z,26.20
2019-04-30T14:43:18.936Z,26.10
2019-04-30T14:46:20.886Z,26.10
2019-04-30T14:48:53.827Z,26.40
2019-04-30T14:51:23.725Z,26.80
2019-04-30T14:54:13.821Z,27.00
2019-04-30T14:56:50.301Z,26.90
2019-04-30T14:59:38.907Z,26.90
2019-04-30T15:02:23.075Z,27.00
2019-04-30T15:04:52.860Z,26.40
2019-04-30T15:07:23.326Z,26.60
2019-04-30T15:09:52.752Z,26.00
2019-04-30T15:12:22.264Z,25.90
2019-04-30T15:14:51.833Z,26.10
2019-04-30T15:17:21.315Z,25.90
2019-04-30T15:19:54.221Z,25.90
2019-04-30T15:22:21.894Z,25.80
2019-04-30T15:24:51.385Z,25.70
2019-04-30T15:27:20.897Z,26.00
2019-04-30T15:29:57.251Z,25.70
2019-04-30T15:32:22.779Z,25.70
2019-04-30T15:34:52.714Z,25.70
2019-04-30T15:37:24.008Z,25.20
2019-04-30T15:39:53.225Z,25.30
2019-04-30T15:42:23.260Z,25.10
2019-04-30T15:44:53.519Z,24.80
2019-04-30T15:47:23.721Z,24.70
2019-04-30T15:49:53.176Z,24.70
2019-04-30T15:52:22.983Z,24.40
2019-04-30T15:54:53.583Z,24.20
2019-04-30T15:57:23.152Z,24.00
2019-04-30T15:59:52.507Z,23.60
2019-04-30T16:02:30.531Z,23.10
2019-04-30T16:05:18.876Z,22.90
2019-04-30T16:08:10.249Z,22.30
2019-04-30T16:11:02.262Z,21.90
2019-04-30T16:13:35.761Z,21.70
2019-04-30T16:16:05.361Z,21.60
2019-04-30T16:18:53.706Z,21.50
2019-04-30T16:21:24.177Z,21.30
2019-04-30T16:23:53.665Z,21.10
2019-04-30T16:26:23.295Z,21.00
2019-04-30T16:28:52.726Z,20.90
2019-04-30T16:31:22.184Z,20.80
2019-04-30T16:33:52.059Z,20.80
2019-04-30T16:36:21.423Z,20.60
2019-04-30T16:38:50.840Z,20.40
2019-04-30T16:41:31.088Z,20.30
2019-04-30T16:43:51.259Z,20.00
2019-04-30T16:46:20.795Z,19.90
2019-04-30T16:48:50.091Z,19.80
2019-04-30T16:51:19.745Z,19.80
2019-04-30T16:53:49.143Z,19.70
2019-04-30T16:56:18.739Z,19.70
2019-04-30T16:59:01.199Z,19.70
2019-04-30T17:01:31.827Z,19.60
2019-04-30T17:04:09.104Z,19.40
2019-04-30T17:06:41.234Z,19.20
2019-04-30T17:09:23.209Z,19.10
2019-04-30T17:12:11.463Z,19.10
2019-04-30T17:14:41.617Z,19.00
2019-04-30T17:17:11.088Z,18.90
2019-04-30T17:19:40.779Z,18.90
2019-04-30T17:22:10.303Z,18.80
2019-04-30T17:24:39.710Z,18.80
2019-04-30T17:27:17.128Z,18.70
2019-04-30T17:29:41.386Z,18.60
2019-04-30T17:32:11.056Z,18.50
2019-04-30T17:34:40.497Z,18.40
2019-04-30T17:37:09.898Z,18.40
2019-04-30T17:39:41.100Z,18.30
2019-04-30T17:42:10.523Z,18.20
2019-04-30T17:44:39.950Z,18.20
2019-04-30T17:47:09.499Z,18.10
2019-04-30T17:49:39.064Z,18.00
2019-04-30T17:52:08.870Z,17.90
2019-04-30T17:54:38.202Z,17.80
2019-04-30T17:57:10.469Z,17.70
2019-04-30T17:59:38.505Z,17.60
2019-04-30T18:02:09.686Z,17.50
2019-04-30T18:04:39.006Z,17.40
2019-04-30T18:07:09.961Z,17.30
2019-04-30T18:09:39.465Z,17.20
2019-04-30T18:12:09.423Z,17.10
2019-04-30T18:14:39.601Z,17.00
2019-04-30T18:17:09.386Z,16.90
2019-04-30T18:19:54.707Z,16.80
2019-04-30T18:22:43.219Z,16.70
2019-04-30T18:25:26.678Z,16.60
2019-04-30T18:27:59.503Z,16.50
2019-04-30T18:30:33.058Z,16.40
2019-04-30T18:33:02.653Z,16.30
2019-04-30T18:35:32.021Z,16.20
2019-04-30T18:38:01.366Z,16.10
2019-04-30T18:40:30.958Z,16.00
2019-04-30T18:43:00.343Z,15.90
2019-04-30T18:45:29.718Z,15.80
2019-04-30T18:47:59.526Z,15.70
2019-04-30T18:50:30.157Z,15.60
2019-04-30T18:53:01.756Z,15.50
2019-04-30T18:55:31.175Z,15.40
2019-04-30T18:58:01.423Z,15.30
2019-04-30T19:00:41.407Z,15.10
2019-04-30T19:03:11.176Z,15.00
2019-04-30T19:05:42.654Z,14.90
2019-04-30T19:08:21.229Z,14.90
2019-04-30T19:11:09.270Z,14.80
2019-04-30T19:14:00.565Z,14.70
2019-04-30T19:16:55.996Z,14.60
2019-04-30T19:19:53.326Z,14.50
2019-04-30T19:22:22.759Z,14.40
2019-04-30T19:24:58.442Z,14.30
2019-04-30T19:27:23.388Z,14.30
2019-04-30T19:29:52.981Z,14.20
2019-04-30T19:32:22.542Z,14.10
2019-04-30T19:34:55.967Z,14.00
2019-04-30T19:37:25.470Z,13.90
2019-04-30T19:39:55.159Z,13.80
2019-04-30T19:42:24.760Z,13.70
2019-04-30T19:44:59.798Z,13.70
2019-04-30T19:47:30.884Z,13.60
2019-04-30T19:50:01.396Z,13.50
2019-04-30T19:52:31.164Z,13.40
2019-04-30T19:55:01.012Z,13.30
2019-04-30T19:57:30.371Z,13.30
2019-04-30T20:00:00.206Z,13.30
2019-04-30T20:02:30.279Z,13.20
2019-04-30T20:05:01.267Z,13.20
2019-04-30T20:07:31.120Z,13.10
2019-04-30T20:10:03.907Z,13.10
2019-04-30T20:12:31.865Z,13.10
2019-04-30T20:15:01.468Z,13.10
2019-04-30T20:17:30.957Z,13.00
2019-04-30T20:20:00.542Z,13.00
2019-04-30T20:22:30.218Z,13.00
2019-04-30T20:24:59.947Z,12.90
2019-04-30T20:27:29.861Z,12.90
2019-04-30T20:29:59.690Z,12.80
2019-04-30T20:32:36.278Z,12.80
2019-04-30T20:35:00.298Z,12.70
2019-04-30T20:37:34.636Z,12.70
2019-04-30T20:40:10.759Z,12.60
2019-04-30T20:42:40.201Z,12.50
2019-04-30T20:45:09.734Z,12.40
2019-04-30T20:47:39.774Z,12.40
2019-04-30T20:50:09.283Z,12.30
2019-04-30T20:52:38.961Z,12.20
2019-04-30T20:55:08.662Z,12.10
2019-04-30T20:57:39.511Z,12.10
2019-04-30T21:00:09.123Z,12.00
2019-04-30T21:02:38.787Z,12.00
2019-04-30T21:05:08.240Z,12.00
2019-04-30T21:07:37.772Z,11.90
2019-04-30T21:10:10.001Z,11.90
2019-04-30T21:12:39.679Z,11.80
2019-04-30T21:15:10.165Z,11.70
2019-04-30T21:17:39.568Z,11.70
2019-04-30T21:20:09.677Z,11.70
2019-04-30T21:22:41.037Z,11.60
2019-04-30T21:25:12.334Z,11.60
2019-04-30T21:27:41.479Z,11.50
2019-04-30T21:30:12.002Z,11.50
2019-04-30T21:33:19.344Z,11.40
2019-04-30T21:36:02.709Z,11.40
2019-04-30T21:38:32.160Z,11.30
2019-04-30T21:41:01.529Z,11.30
2019-04-30T21:43:30.997Z,11.30
2019-04-30T21:46:00.377Z,11.20
2019-04-30T21:48:29.897Z,11.20
2019-04-30T21:50:59.413Z,11.30
2019-04-30T21:53:29.505Z,11.20
2019-04-30T21:55:59.185Z,11.20
2019-04-30T21:58:29.170Z,11.20
2019-04-30T22:01:24.778Z,11.20
2019-04-30T22:03:54.257Z,11.20
2019-04-30T22:06:23.809Z,11.20
2019-04-30T22:08:53.299Z,11.20
2019-04-30T22:11:22.935Z,11.30
2019-04-30T22:13:52.284Z,11.30
2019-04-30T22:16:21.974Z,11.20
2019-04-30T22:18:51.444Z,11.10
2019-04-30T22:21:20.893Z,11.00
2019-04-30T22:23:50.328Z,11.00
2019-04-30T22:26:19.694Z,10.90
2019-04-30T22:28:49.511Z,10.80
2019-04-30T22:31:19.768Z,10.70
2019-04-30T22:33:49.291Z,10.60
2019-04-30T22:36:40.658Z,10.60
2019-04-30T22:39:26.489Z,10.50
2019-04-30T22:42:21.463Z,10.50
2019-04-30T22:44:51.018Z,10.50
2019-04-30T22:47:20.422Z,10.40
2019-04-30T22:49:49.810Z,10.30
2019-04-30T22:52:21.943Z,10.30
2019-04-30T22:54:51.331Z,10.20
2019-04-30T22:57:20.727Z,10.20
2019-04-30T22:59:50.292Z,10.10
2019-04-30T23:02:29.336Z,10.10
2019-04-30T23:04:59.202Z,10.10
2019-04-30T23:07:28.570Z,10.10
2019-04-30T23:09:57.955Z,10.00
2019-04-30T23:12:27.407Z,10.00
2019-04-30T23:14:56.792Z,9.90
2019-04-30T23:17:26.161Z,9.90
2019-04-30T23:19:55.631Z,9.90
2019-04-30T23:22:25.006Z,9.80
2019-04-30T23:24:54.396Z,9.80
2019-04-30T23:27:23.759Z,9.70
2019-04-30T23:30:03.031Z,9.70
2019-04-30T23:32:24.275Z,9.70
2019-04-30T23:34:53.783Z,9.60
2019-04-30T23:37:23.190Z,9.60
2019-04-30T23:39:52.610Z,9.60
2019-04-30T23:42:22.051Z,9.60
2019-04-30T23:44:51.433Z,9.60
2019-04-30T23:47:20.784Z,9.60
2019-04-30T23:49:50.184Z,9.50
2019-04-30T23:52:19.559Z,9.50
2019-04-30T23:54:48.935Z,9.50
2019-04-30T23:57:18.313Z,9.50
2019-04-30T23:59:47.696Z,9.40
